sensor_id;sensor_type;location;lat;lon;timestamp;temperature;humidity
5218;DHT22;26539;51.064;6.346;2024-02-16T00:02:17;13.00;99.90
5218;DHT22;26539;51.064;6.346;2024-02-16T00:04:43;13.00;99.90
5218;DHT22;26539;51.064;6.346;2024-02-16T00:07:09;13.00;99.90
5218;DHT22;26539;51.064;6.346;2024-02-16T00:09:35;12.90;99.90
5218;DHT22;26539;51.064;6.346;2024-02-16T00:12:00;12.80;1.00
5218;DHT22;26539;51.064;6.346;2024-02-16T00:14:26;12.80;1.00
5218;DHT22;26539;51.064;6.346;2024-02-16T00:16:52;12.90;1.00
5218;DHT22;26539;51.064;6.346;2024-02-16T00:19:17;12.80;99.90
5218;DHT22;26539;51.064;6.346;2024-02-16T00:21:43;12.80;99.90
5218;DHT22;26539;51.064;6.346;2024-02-16T00:24:09;12.80;99.90
5218;DHT22;26539;51.064;6.346;2024-02-16T00:26:35;12.80;99.90
5218;DHT22;26539;51.064;6.346;2024-02-16T00:29:00;12.80;1.00
5218;DHT22;26539;51.064;6.346;2024-02-16T00:31:26;12.80;1.00
5218;DHT22;26539;51.064;6.346;2024-02-16T00:33:51;12.80;1.00
5218;DHT22;26539;51.064;6.346;2024-02-16T00:36:17;12.80;1.00
5218;DHT22;26539;51.064;6.346;2024-02-16T00:38:42;12.80;1.00
5218;DHT22;26539;51.064;6.346;2024-02-16T00:41:08;12.70;62.20
5218;DHT22;26539;51.064;6.346;2024-02-16T00:43:34;12.70;99.90
5218;DHT22;26539;51.064;6.346;2024-02-16T00:45:59;12.70;99.90
5218;DHT22;26539;51.064;6.346;2024-02-16T00:48:25;12.70;32.10
5218;DHT22;26539;51.064;6.346;2024-02-16T00:50:50;12.70;1.00
5218;DHT22;26539;51.064;6.346;2024-02-16T00:53:16;12.70;1.00
5218;DHT22;26539;51.064;6.346;2024-02-16T00:55:41;12.80;1.00
5218;DHT22;26539;51.064;6.346;2024-02-16T00:58:07;12.80;1.00
5218;DHT22;26539;51.064;6.346;2024-02-16T01:00:33;12.80;1.00
5218;DHT22;26539;51.064;6.346;2024-02-16T01:02:58;12.80;1.00
5218;DHT22;26539;51.064;6.346;2024-02-16T01:05:24;12.80;1.00
5218;DHT22;26539;51.064;6.346;2024-02-16T01:07:49;12.80;1.00
5218;DHT22;26539;51.064;6.346;2024-02-16T01:10:15;12.90;1.00
5218;DHT22;26539;51.064;6.346;2024-02-16T01:12:41;12.90;1.00
5218;DHT22;26539;51.064;6.346;2024-02-16T01:15:07;12.90;1.00
5218;DHT22;26539;51.064;6.346;2024-02-16T01:17:32;12.90;1.00
5218;DHT22;26539;51.064;6.346;2024-02-16T01:19:58;12.90;1.00
5218;DHT22;26539;51.064;6.346;2024-02-16T01:22:24;12.90;1.00
5218;DHT22;26539;51.064;6.346;2024-02-16T01:24:49;12.90;1.00
5218;DHT22;26539;51.064;6.346;2024-02-16T01:27:16;13.00;1.00
5218;DHT22;26539;51.064;6.346;2024-02-16T01:29:41;13.00;1.00
5218;DHT22;26539;51.064;6.346;2024-02-16T01:32:08;13.00;42.10
5218;DHT22;26539;51.064;6.346;2024-02-16T01:34:33;12.90;99.90
5218;DHT22;26539;51.064;6.346;2024-02-16T01:36:59;12.90;1.00
5218;DHT22;26539;51.064;6.346;2024-02-16T01:39:25;12.80;99.90
5218;DHT22;26539;51.064;6.346;2024-02-16T01:41:50;12.70;1.00
5218;DHT22;26539;51.064;6.346;2024-02-16T01:44:16;12.70;1.00
5218;DHT22;26539;51.064;6.346;2024-02-16T01:46:42;12.70;99.90
5218;DHT22;26539;51.064;6.346;2024-02-16T01:49:09;12.60;1.00
5218;DHT22;26539;51.064;6.346;2024-02-16T01:51:36;12.50;95.50
5218;DHT22;26539;51.064;6.346;2024-02-16T01:54:02;12.50;88.50
5218;DHT22;26539;51.064;6.346;2024-02-16T01:56:28;12.40;99.90
5218;DHT22;26539;51.064;6.346;2024-02-16T01:58:54;12.40;99.90
5218;DHT22;26539;51.064;6.346;2024-02-16T02:01:20;12.40;99.90
5218;DHT22;26539;51.064;6.346;2024-02-16T02:03:46;12.40;99.90
5218;DHT22;26539;51.064;6.346;2024-02-16T02:06:11;12.40;99.90
5218;DHT22;26539;51.064;6.346;2024-02-16T02:08:37;12.40;99.90
5218;DHT22;26539;51.064;6.346;2024-02-16T02:11:02;12.30;99.90
5218;DHT22;26539;51.064;6.346;2024-02-16T02:13:28;12.30;99.90
5218;DHT22;26539;51.064;6.346;2024-02-16T02:15:55;12.30;99.90
5218;DHT22;26539;51.064;6.346;2024-02-16T02:18:21;12.30;99.90
5218;DHT22;26539;51.064;6.346;2024-02-16T02:20:46;12.40;99.90
5218;DHT22;26539;51.064;6.346;2024-02-16T02:23:12;12.40;26.40
5218;DHT22;26539;51.064;6.346;2024-02-16T02:25:38;12.40;92.50
5218;DHT22;26539;51.064;6.346;2024-02-16T02:28:05;12.40;2.50
5218;DHT22;26539;51.064;6.346;2024-02-16T02:30:31;12.50;1.00
5218;DHT22;26539;51.064;6.346;2024-02-16T02:32:57;12.50;1.00
5218;DHT22;26539;51.064;6.346;2024-02-16T02:35:23;12.60;1.00
5218;DHT22;26539;51.064;6.346;2024-02-16T02:37:48;12.60;1.00
5218;DHT22;26539;51.064;6.346;2024-02-16T02:40:14;12.60;1.00
5218;DHT22;26539;51.064;6.346;2024-02-16T02:42:39;12.70;1.00
5218;DHT22;26539;51.064;6.346;2024-02-16T02:45:05;12.70;1.00
5218;DHT22;26539;51.064;6.346;2024-02-16T02:47:31;12.70;1.00
5218;DHT22;26539;51.064;6.346;2024-02-16T02:49:57;12.70;1.00
5218;DHT22;26539;51.064;6.346;2024-02-16T02:52:23;12.70;1.00
5218;DHT22;26539;51.064;6.346;2024-02-16T02:54:48;12.70;1.00
5218;DHT22;26539;51.064;6.346;2024-02-16T02:57:14;12.70;99.90
5218;DHT22;26539;51.064;6.346;2024-02-16T02:59:39;12.70;99.90
5218;DHT22;26539;51.064;6.346;2024-02-16T03:02:05;12.70;99.90
5218;DHT22;26539;51.064;6.346;2024-02-16T03:04:31;12.70;99.90
5218;DHT22;26539;51.064;6.346;2024-02-16T03:06:56;12.70;99.90
5218;DHT22;26539;51.064;6.346;2024-02-16T03:09:22;12.70;99.90
5218;DHT22;26539;51.064;6.346;2024-02-16T03:11:48;12.70;99.90
5218;DHT22;26539;51.064;6.346;2024-02-16T03:14:15;12.70;99.90
5218;DHT22;26539;51.064;6.346;2024-02-16T03:16:41;12.70;99.90
5218;DHT22;26539;51.064;6.346;2024-02-16T03:19:07;12.60;99.90
5218;DHT22;26539;51.064;6.346;2024-02-16T03:21:34;12.60;1.00
5218;DHT22;26539;51.064;6.346;2024-02-16T03:24:01;12.60;1.00
5218;DHT22;26539;51.064;6.346;2024-02-16T03:26:27;12.50;1.00
5218;DHT22;26539;51.064;6.346;2024-02-16T03:28:52;12.50;1.00
5218;DHT22;26539;51.064;6.346;2024-02-16T03:31:19;12.50;1.00
5218;DHT22;26539;51.064;6.346;2024-02-16T03:33:45;12.60;99.90
5218;DHT22;26539;51.064;6.346;2024-02-16T03:36:13;12.60;1.00
5218;DHT22;26539;51.064;6.346;2024-02-16T03:38:47;12.60;1.00
5218;DHT22;26539;51.064;6.346;2024-02-16T03:41:18;12.60;99.90
5218;DHT22;26539;51.064;6.346;2024-02-16T03:43:44;12.70;99.90
5218;DHT22;26539;51.064;6.346;2024-02-16T03:46:10;12.70;99.90
5218;DHT22;26539;51.064;6.346;2024-02-16T03:48:36;12.70;99.90
5218;DHT22;26539;51.064;6.346;2024-02-16T03:51:02;12.80;99.90
5218;DHT22;26539;51.064;6.346;2024-02-16T03:53:28;12.80;43.80
5218;DHT22;26539;51.064;6.346;2024-02-16T03:55:54;12.90;1.00
5218;DHT22;26539;51.064;6.346;2024-02-16T03:58:21;12.90;1.00
5218;DHT22;26539;51.064;6.346;2024-02-16T04:00:46;12.90;1.00
5218;DHT22;26539;51.064;6.346;2024-02-16T04:03:14;13.00;1.00
5218;DHT22;26539;51.064;6.346;2024-02-16T04:05:39;12.90;1.00
5218;DHT22;26539;51.064;6.346;2024-02-16T04:08:05;12.90;1.00
5218;DHT22;26539;51.064;6.346;2024-02-16T04:10:32;13.00;1.00
5218;DHT22;26539;51.064;6.346;2024-02-16T04:12:58;13.00;1.00
5218;DHT22;26539;51.064;6.346;2024-02-16T04:15:23;13.00;99.90
5218;DHT22;26539;51.064;6.346;2024-02-16T04:17:49;13.00;99.90
5218;DHT22;26539;51.064;6.346;2024-02-16T04:20:15;13.00;99.90
5218;DHT22;26539;51.064;6.346;2024-02-16T04:22:41;13.00;1.00
5218;DHT22;26539;51.064;6.346;2024-02-16T04:25:07;12.90;1.00
5218;DHT22;26539;51.064;6.346;2024-02-16T04:27:37;12.90;1.00
5218;DHT22;26539;51.064;6.346;2024-02-16T04:30:03;12.90;1.00
5218;DHT22;26539;51.064;6.346;2024-02-16T04:32:29;12.90;47.90
5218;DHT22;26539;51.064;6.346;2024-02-16T04:34:55;12.90;99.90
5218;DHT22;26539;51.064;6.346;2024-02-16T04:37:27;12.80;99.90
5218;DHT22;26539;51.064;6.346;2024-02-16T04:39:52;12.80;99.90
5218;DHT22;26539;51.064;6.346;2024-02-16T04:42:18;12.80;99.90
5218;DHT22;26539;51.064;6.346;2024-02-16T04:44:44;12.80;1.00
5218;DHT22;26539;51.064;6.346;2024-02-16T04:47:09;12.70;1.00
5218;DHT22;26539;51.064;6.346;2024-02-16T04:49:35;12.70;1.00
5218;DHT22;26539;51.064;6.346;2024-02-16T04:52:02;12.70;1.00
5218;DHT22;26539;51.064;6.346;2024-02-16T04:54:28;12.60;1.00
5218;DHT22;26539;51.064;6.346;2024-02-16T04:56:53;12.60;1.00
5218;DHT22;26539;51.064;6.346;2024-02-16T04:59:19;12.60;1.00
5218;DHT22;26539;51.064;6.346;2024-02-16T05:01:45;12.60;1.00
5218;DHT22;26539;51.064;6.346;2024-02-16T05:04:11;12.60;1.00
5218;DHT22;26539;51.064;6.346;2024-02-16T05:06:39;12.60;1.00
5218;DHT22;26539;51.064;6.346;2024-02-16T05:09:05;12.60;1.00
5218;DHT22;26539;51.064;6.346;2024-02-16T05:11:32;12.60;1.00
5218;DHT22;26539;51.064;6.346;2024-02-16T05:13:58;12.60;8.80
5218;DHT22;26539;51.064;6.346;2024-02-16T05:16:23;12.60;37.80
5218;DHT22;26539;51.064;6.346;2024-02-16T05:18:49;12.60;91.60
5218;DHT22;26539;51.064;6.346;2024-02-16T05:21:16;12.50;99.90
5218;DHT22;26539;51.064;6.346;2024-02-16T05:23:41;12.50;99.90
5218;DHT22;26539;51.064;6.346;2024-02-16T05:26:07;12.60;99.90
5218;DHT22;26539;51.064;6.346;2024-02-16T05:28:33;12.60;99.90
5218;DHT22;26539;51.064;6.346;2024-02-16T05:31:12;12.60;99.90
5218;DHT22;26539;51.064;6.346;2024-02-16T05:33:40;12.60;99.90
5218;DHT22;26539;51.064;6.346;2024-02-16T05:36:06;12.60;98.10
5218;DHT22;26539;51.064;6.346;2024-02-16T05:38:32;12.60;76.50
5218;DHT22;26539;51.064;6.346;2024-02-16T05:41:00;12.70;46.90
5218;DHT22;26539;51.064;6.346;2024-02-16T05:43:26;12.70;17.60
5218;DHT22;26539;51.064;6.346;2024-02-16T05:45:51;12.80;1.00
5218;DHT22;26539;51.064;6.346;2024-02-16T05:48:17;12.80;1.00
5218;DHT22;26539;51.064;6.346;2024-02-16T05:50:42;12.90;1.00
5218;DHT22;26539;51.064;6.346;2024-02-16T05:53:09;12.90;1.00
5218;DHT22;26539;51.064;6.346;2024-02-16T05:55:36;12.90;1.00
5218;DHT22;26539;51.064;6.346;2024-02-16T05:58:01;13.00;1.00
5218;DHT22;26539;51.064;6.346;2024-02-16T06:00:31;13.00;1.00
5218;DHT22;26539;51.064;6.346;2024-02-16T06:02:57;13.10;1.00
5218;DHT22;26539;51.064;6.346;2024-02-16T06:05:22;13.10;99.90
5218;DHT22;26539;51.064;6.346;2024-02-16T06:07:48;13.10;99.90
5218;DHT22;26539;51.064;6.346;2024-02-16T06:10:14;13.10;99.90
5218;DHT22;26539;51.064;6.346;2024-02-16T06:12:39;13.10;99.90
5218;DHT22;26539;51.064;6.346;2024-02-16T06:15:05;13.20;99.90
5218;DHT22;26539;51.064;6.346;2024-02-16T06:17:31;13.20;99.90
5218;DHT22;26539;51.064;6.346;2024-02-16T06:19:56;13.20;25.90
5218;DHT22;26539;51.064;6.346;2024-02-16T06:22:22;13.20;21.00
5218;DHT22;26539;51.064;6.346;2024-02-16T06:24:47;13.20;73.80
5218;DHT22;26539;51.064;6.346;2024-02-16T06:27:13;13.20;99.90
5218;DHT22;26539;51.064;6.346;2024-02-16T06:29:39;13.20;99.90
5218;DHT22;26539;51.064;6.346;2024-02-16T06:32:05;13.20;99.90
5218;DHT22;26539;51.064;6.346;2024-02-16T06:34:31;13.20;99.90
5218;DHT22;26539;51.064;6.346;2024-02-16T06:36:57;13.20;99.90
5218;DHT22;26539;51.064;6.346;2024-02-16T06:39:22;13.20;99.90
5218;DHT22;26539;51.064;6.346;2024-02-16T06:41:48;13.20;99.90
5218;DHT22;26539;51.064;6.346;2024-02-16T06:44:17;13.20;99.90
5218;DHT22;26539;51.064;6.346;2024-02-16T06:46:43;13.20;99.90
5218;DHT22;26539;51.064;6.346;2024-02-16T06:49:09;13.30;59.80
5218;DHT22;26539;51.064;6.346;2024-02-16T06:51:35;13.20;27.50
5218;DHT22;26539;51.064;6.346;2024-02-16T06:54:02;13.30;1.00
5218;DHT22;26539;51.064;6.346;2024-02-16T06:56:28;13.30;1.00
5218;DHT22;26539;51.064;6.346;2024-02-16T06:58:54;13.30;1.00
5218;DHT22;26539;51.064;6.346;2024-02-16T07:01:20;13.40;1.00
5218;DHT22;26539;51.064;6.346;2024-02-16T07:03:45;13.40;1.00
5218;DHT22;26539;51.064;6.346;2024-02-16T07:06:12;13.50;99.90
5218;DHT22;26539;51.064;6.346;2024-02-16T07:08:40;13.60;1.00
5218;DHT22;26539;51.064;6.346;2024-02-16T07:11:05;13.70;99.90
5218;DHT22;26539;51.064;6.346;2024-02-16T07:13:34;13.80;1.00
5218;DHT22;26539;51.064;6.346;2024-02-16T07:16:00;13.90;1.00
5218;DHT22;26539;51.064;6.346;2024-02-16T07:18:26;14.00;1.00
5218;DHT22;26539;51.064;6.346;2024-02-16T07:20:51;14.10;99.90
5218;DHT22;26539;51.064;6.346;2024-02-16T07:23:17;14.20;99.90
5218;DHT22;26539;51.064;6.346;2024-02-16T07:25:43;14.20;1.00
5218;DHT22;26539;51.064;6.346;2024-02-16T07:28:08;14.30;99.90
5218;DHT22;26539;51.064;6.346;2024-02-16T07:30:36;14.40;99.90
5218;DHT22;26539;51.064;6.346;2024-02-16T07:33:08;14.50;88.20
5218;DHT22;26539;51.064;6.346;2024-02-16T07:35:34;14.60;1.00
5218;DHT22;26539;51.064;6.346;2024-02-16T07:38:01;14.70;1.00
5218;DHT22;26539;51.064;6.346;2024-02-16T07:40:27;14.70;1.00
5218;DHT22;26539;51.064;6.346;2024-02-16T07:42:53;14.80;1.00
5218;DHT22;26539;51.064;6.346;2024-02-16T07:45:19;14.80;99.90
5218;DHT22;26539;51.064;6.346;2024-02-16T07:47:45;14.80;99.90
5218;DHT22;26539;51.064;6.346;2024-02-16T07:50:11;14.90;99.90
5218;DHT22;26539;51.064;6.346;2024-02-16T07:52:38;14.90;99.90
5218;DHT22;26539;51.064;6.346;2024-02-16T07:55:05;14.90;99.90
5218;DHT22;26539;51.064;6.346;2024-02-16T07:57:31;15.00;99.90
5218;DHT22;26539;51.064;6.346;2024-02-16T07:59:57;15.00;99.90
5218;DHT22;26539;51.064;6.346;2024-02-16T08:02:23;15.10;57.70
5218;DHT22;26539;51.064;6.346;2024-02-16T08:04:49;15.20;1.00
5218;DHT22;26539;51.064;6.346;2024-02-16T08:07:15;15.20;1.00
5218;DHT22;26539;51.064;6.346;2024-02-16T08:09:46;15.30;1.00
5218;DHT22;26539;51.064;6.346;2024-02-16T08:12:13;15.40;1.00
5218;DHT22;26539;51.064;6.346;2024-02-16T08:14:39;15.60;1.00
5218;DHT22;26539;51.064;6.346;2024-02-16T08:17:05;15.60;1.00
5218;DHT22;26539;51.064;6.346;2024-02-16T08:19:33;15.80;1.00
5218;DHT22;26539;51.064;6.346;2024-02-16T08:22:00;15.90;99.90
5218;DHT22;26539;51.064;6.346;2024-02-16T08:24:26;16.00;99.90
5218;DHT22;26539;51.064;6.346;2024-02-16T08:26:52;16.00;99.90
5218;DHT22;26539;51.064;6.346;2024-02-16T08:29:18;16.00;99.90
5218;DHT22;26539;51.064;6.346;2024-02-16T08:31:43;16.00;99.90
5218;DHT22;26539;51.064;6.346;2024-02-16T08:34:09;16.00;99.90
5218;DHT22;26539;51.064;6.346;2024-02-16T08:36:36;16.00;99.90
5218;DHT22;26539;51.064;6.346;2024-02-16T08:39:01;16.00;99.90
5218;DHT22;26539;51.064;6.346;2024-02-16T08:41:27;16.10;99.90
5218;DHT22;26539;51.064;6.346;2024-02-16T08:43:52;16.10;99.90
5218;DHT22;26539;51.064;6.346;2024-02-16T08:46:18;16.00;99.90
5218;DHT22;26539;51.064;6.346;2024-02-16T08:48:47;16.10;99.90
5218;DHT22;26539;51.064;6.346;2024-02-16T08:51:13;16.10;99.90
5218;DHT22;26539;51.064;6.346;2024-02-16T08:53:39;16.00;99.90
5218;DHT22;26539;51.064;6.346;2024-02-16T08:56:09;16.00;99.90
5218;DHT22;26539;51.064;6.346;2024-02-16T08:58:36;16.00;99.90
5218;DHT22;26539;51.064;6.346;2024-02-16T09:01:02;16.00;99.90
5218;DHT22;26539;51.064;6.346;2024-02-16T09:03:29;15.90;99.90
5218;DHT22;26539;51.064;6.346;2024-02-16T09:05:54;15.90;1.00
5218;DHT22;26539;51.064;6.346;2024-02-16T09:08:20;16.00;1.00
5218;DHT22;26539;51.064;6.346;2024-02-16T09:10:45;16.00;1.00
5218;DHT22;26539;51.064;6.346;2024-02-16T09:13:11;16.10;1.00
5218;DHT22;26539;51.064;6.346;2024-02-16T09:15:37;16.10;1.00
5218;DHT22;26539;51.064;6.346;2024-02-16T09:18:03;16.20;1.00
5218;DHT22;26539;51.064;6.346;2024-02-16T09:20:29;16.20;99.90
5218;DHT22;26539;51.064;6.346;2024-02-16T09:22:54;16.30;99.90
5218;DHT22;26539;51.064;6.346;2024-02-16T09:25:20;16.30;99.90
5218;DHT22;26539;51.064;6.346;2024-02-16T09:27:46;16.40;99.90
5218;DHT22;26539;51.064;6.346;2024-02-16T09:30:12;16.30;99.90
5218;DHT22;26539;51.064;6.346;2024-02-16T09:32:41;16.30;99.90
5218;DHT22;26539;51.064;6.346;2024-02-16T09:35:08;16.30;99.90
5218;DHT22;26539;51.064;6.346;2024-02-16T09:37:35;16.30;99.90
5218;DHT22;26539;51.064;6.346;2024-02-16T09:40:02;16.40;99.90
5218;DHT22;26539;51.064;6.346;2024-02-16T09:42:29;16.40;99.90
5218;DHT22;26539;51.064;6.346;2024-02-16T09:44:54;16.40;99.90
5218;DHT22;26539;51.064;6.346;2024-02-16T09:47:22;16.40;99.90
5218;DHT22;26539;51.064;6.346;2024-02-16T09:49:48;16.30;99.90
5218;DHT22;26539;51.064;6.346;2024-02-16T09:52:14;16.40;1.00
5218;DHT22;26539;51.064;6.346;2024-02-16T09:54:40;16.50;99.90
5218;DHT22;26539;51.064;6.346;2024-02-16T09:57:06;16.60;99.90
5218;DHT22;26539;51.064;6.346;2024-02-16T09:59:31;16.60;99.90
5218;DHT22;26539;51.064;6.346;2024-02-16T10:02:01;16.60;99.90
5218;DHT22;26539;51.064;6.346;2024-02-16T10:04:27;16.70;99.90
5218;DHT22;26539;51.064;6.346;2024-02-16T10:06:53;16.70;99.90
5218;DHT22;26539;51.064;6.346;2024-02-16T10:09:26;16.70;99.90
5218;DHT22;26539;51.064;6.346;2024-02-16T10:11:52;16.70;99.90
5218;DHT22;26539;51.064;6.346;2024-02-16T10:14:18;16.70;99.90
5218;DHT22;26539;51.064;6.346;2024-02-16T10:16:48;16.70;99.90
5218;DHT22;26539;51.064;6.346;2024-02-16T10:19:24;16.70;99.90
5218;DHT22;26539;51.064;6.346;2024-02-16T10:21:49;16.70;99.90
5218;DHT22;26539;51.064;6.346;2024-02-16T10:24:15;16.80;99.90
5218;DHT22;26539;51.064;6.346;2024-02-16T10:26:41;16.90;99.90
5218;DHT22;26539;51.064;6.346;2024-02-16T10:29:09;16.90;99.90
5218;DHT22;26539;51.064;6.346;2024-02-16T10:31:35;16.90;99.90
5218;DHT22;26539;51.064;6.346;2024-02-16T10:34:02;17.00;99.90
5218;DHT22;26539;51.064;6.346;2024-02-16T10:36:34;17.10;99.90
5218;DHT22;26539;51.064;6.346;2024-02-16T10:39:01;17.20;99.90
5218;DHT22;26539;51.064;6.346;2024-02-16T10:41:33;17.20;99.90
5218;DHT22;26539;51.064;6.346;2024-02-16T10:44:04;17.30;99.90
5218;DHT22;26539;51.064;6.346;2024-02-16T10:46:30;17.30;99.90
5218;DHT22;26539;51.064;6.346;2024-02-16T10:48:55;17.30;99.90
5218;DHT22;26539;51.064;6.346;2024-02-16T10:53:57;17.50;99.90
5218;DHT22;26539;51.064;6.346;2024-02-16T10:56:38;17.50;99.90
5218;DHT22;26539;51.064;6.346;2024-02-16T10:59:09;17.70;99.90
5218;DHT22;26539;51.064;6.346;2024-02-16T11:01:42;17.80;99.90
5218;DHT22;26539;51.064;6.346;2024-02-16T11:04:11;17.90;91.80
5218;DHT22;26539;51.064;6.346;2024-02-16T11:09:22;17.90;73.00
5218;DHT22;26539;51.064;6.346;2024-02-16T11:12:04;17.90;83.50
5218;DHT22;26539;51.064;6.346;2024-02-16T11:14:36;17.80;97.30
5218;DHT22;26539;51.064;6.346;2024-02-16T11:17:07;17.70;95.70
5218;DHT22;26539;51.064;6.346;2024-02-16T11:19:36;17.60;99.90
5218;DHT22;26539;51.064;6.346;2024-02-16T11:22:06;17.40;99.90
5218;DHT22;26539;51.064;6.346;2024-02-16T11:24:37;17.30;99.90
5218;DHT22;26539;51.064;6.346;2024-02-16T11:27:07;17.20;99.90
5218;DHT22;26539;51.064;6.346;2024-02-16T11:29:34;17.30;99.90
5218;DHT22;26539;51.064;6.346;2024-02-16T11:32:01;17.20;99.90
5218;DHT22;26539;51.064;6.346;2024-02-16T11:34:27;17.20;99.90
5218;DHT22;26539;51.064;6.346;2024-02-16T11:36:55;17.20;99.90
5218;DHT22;26539;51.064;6.346;2024-02-16T11:39:21;17.10;99.90
5218;DHT22;26539;51.064;6.346;2024-02-16T11:41:47;17.10;1.00
5218;DHT22;26539;51.064;6.346;2024-02-16T11:44:14;17.00;1.00
5218;DHT22;26539;51.064;6.346;2024-02-16T11:46:42;17.00;1.00
5218;DHT22;26539;51.064;6.346;2024-02-16T11:49:08;16.90;1.00
5218;DHT22;26539;51.064;6.346;2024-02-16T11:51:35;16.90;1.00
5218;DHT22;26539;51.064;6.346;2024-02-16T11:54:01;16.90;33.70
5218;DHT22;26539;51.064;6.346;2024-02-16T11:56:26;17.00;82.50
5218;DHT22;26539;51.064;6.346;2024-02-16T11:58:53;17.00;99.90
5218;DHT22;26539;51.064;6.346;2024-02-16T12:01:19;16.90;99.90
5218;DHT22;26539;51.064;6.346;2024-02-16T12:03:44;16.80;99.90
5218;DHT22;26539;51.064;6.346;2024-02-16T12:06:19;16.80;1.00
5218;DHT22;26539;51.064;6.346;2024-02-16T12:08:46;16.70;1.00
5218;DHT22;26539;51.064;6.346;2024-02-16T12:11:11;16.70;99.90
5218;DHT22;26539;51.064;6.346;2024-02-16T12:13:37;16.60;1.00
5218;DHT22;26539;51.064;6.346;2024-02-16T12:16:02;16.50;99.90
5218;DHT22;26539;51.064;6.346;2024-02-16T12:18:28;16.40;1.00
5218;DHT22;26539;51.064;6.346;2024-02-16T12:21:00;16.40;99.90
5218;DHT22;26539;51.064;6.346;2024-02-16T12:23:27;16.30;1.00
5218;DHT22;26539;51.064;6.346;2024-02-16T12:25:53;16.30;99.90
5218;DHT22;26539;51.064;6.346;2024-02-16T12:28:19;16.20;99.90
5218;DHT22;26539;51.064;6.346;2024-02-16T12:30:47;16.10;1.00
5218;DHT22;26539;51.064;6.346;2024-02-16T12:33:13;16.10;99.90
5218;DHT22;26539;51.064;6.346;2024-02-16T12:35:39;16.10;1.00
5218;DHT22;26539;51.064;6.346;2024-02-16T12:38:04;16.10;1.00
5218;DHT22;26539;51.064;6.346;2024-02-16T12:40:30;16.10;1.00
5218;DHT22;26539;51.064;6.346;2024-02-16T12:42:55;16.10;1.00
5218;DHT22;26539;51.064;6.346;2024-02-16T12:45:21;16.00;1.00
5218;DHT22;26539;51.064;6.346;2024-02-16T12:47:47;16.10;1.00
5218;DHT22;26539;51.064;6.346;2024-02-16T12:50:12;16.00;49.10
5218;DHT22;26539;51.064;6.346;2024-02-16T12:52:38;15.90;99.90
5218;DHT22;26539;51.064;6.346;2024-02-16T12:55:06;15.80;99.90
5218;DHT22;26539;51.064;6.346;2024-02-16T12:57:31;15.80;99.90
5218;DHT22;26539;51.064;6.346;2024-02-16T12:59:57;15.70;99.90
5218;DHT22;26539;51.064;6.346;2024-02-16T13:02:23;15.60;1.00
5218;DHT22;26539;51.064;6.346;2024-02-16T13:04:48;15.60;1.00
5218;DHT22;26539;51.064;6.346;2024-02-16T13:07:14;15.50;1.00
5218;DHT22;26539;51.064;6.346;2024-02-16T13:09:39;15.40;1.00
5218;DHT22;26539;51.064;6.346;2024-02-16T13:12:05;15.30;1.00
5218;DHT22;26539;51.064;6.346;2024-02-16T13:14:31;15.30;1.00
5218;DHT22;26539;51.064;6.346;2024-02-16T13:16:56;15.20;1.00
5218;DHT22;26539;51.064;6.346;2024-02-16T13:19:22;15.20;1.00
5218;DHT22;26539;51.064;6.346;2024-02-16T13:21:49;15.20;1.00
5218;DHT22;26539;51.064;6.346;2024-02-16T13:24:16;15.20;1.00
5218;DHT22;26539;51.064;6.346;2024-02-16T13:26:41;15.30;1.00
5218;DHT22;26539;51.064;6.346;2024-02-16T13:29:07;15.30;1.00
5218;DHT22;26539;51.064;6.346;2024-02-16T13:31:32;15.30;1.00
5218;DHT22;26539;51.064;6.346;2024-02-16T13:33:59;15.30;1.00
5218;DHT22;26539;51.064;6.346;2024-02-16T13:36:24;15.20;1.00
5218;DHT22;26539;51.064;6.346;2024-02-16T13:38:50;15.10;1.00
5218;DHT22;26539;51.064;6.346;2024-02-16T13:41:16;15.00;1.00
5218;DHT22;26539;51.064;6.346;2024-02-16T13:43:41;14.90;1.00
5218;DHT22;26539;51.064;6.346;2024-02-16T13:46:07;14.90;1.00
5218;DHT22;26539;51.064;6.346;2024-02-16T13:48:32;14.80;1.00
5218;DHT22;26539;51.064;6.346;2024-02-16T13:50:58;14.80;1.00
5218;DHT22;26539;51.064;6.346;2024-02-16T13:53:25;14.70;1.00
5218;DHT22;26539;51.064;6.346;2024-02-16T13:55:51;14.70;1.80
5218;DHT22;26539;51.064;6.346;2024-02-16T13:58:16;14.70;5.20
5218;DHT22;26539;51.064;6.346;2024-02-16T14:00:42;14.70;11.40
5218;DHT22;26539;51.064;6.346;2024-02-16T14:03:09;14.70;13.10
5218;DHT22;26539;51.064;6.346;2024-02-16T14:05:37;14.80;12.70
5218;DHT22;26539;51.064;6.346;2024-02-16T14:08:04;14.80;11.50
5218;DHT22;26539;51.064;6.346;2024-02-16T14:10:30;14.80;10.20
5218;DHT22;26539;51.064;6.346;2024-02-16T14:12:57;14.90;3.50
5218;DHT22;26539;51.064;6.346;2024-02-16T14:15:23;15.00;1.00
5218;DHT22;26539;51.064;6.346;2024-02-16T14:17:48;15.00;1.00
5218;DHT22;26539;51.064;6.346;2024-02-16T14:20:14;15.00;1.00
5218;DHT22;26539;51.064;6.346;2024-02-16T14:22:40;15.00;1.00
5218;DHT22;26539;51.064;6.346;2024-02-16T14:25:05;15.00;1.00
5218;DHT22;26539;51.064;6.346;2024-02-16T14:27:31;15.00;1.00
5218;DHT22;26539;51.064;6.346;2024-02-16T14:29:57;15.00;1.00
5218;DHT22;26539;51.064;6.346;2024-02-16T14:32:23;15.00;1.00
5218;DHT22;26539;51.064;6.346;2024-02-16T14:34:48;15.00;1.00
5218;DHT22;26539;51.064;6.346;2024-02-16T14:37:14;15.00;1.00
5218;DHT22;26539;51.064;6.346;2024-02-16T14:39:39;15.00;1.00
5218;DHT22;26539;51.064;6.346;2024-02-16T14:42:05;15.00;1.00
5218;DHT22;26539;51.064;6.346;2024-02-16T14:44:30;15.00;1.00
5218;DHT22;26539;51.064;6.346;2024-02-16T14:46:56;15.00;1.00
5218;DHT22;26539;51.064;6.346;2024-02-16T14:49:22;14.90;1.00
5218;DHT22;26539;51.064;6.346;2024-02-16T14:51:50;14.80;1.00
5218;DHT22;26539;51.064;6.346;2024-02-16T14:54:17;14.70;1.00
5218;DHT22;26539;51.064;6.346;2024-02-16T14:56:42;14.70;1.00
5218;DHT22;26539;51.064;6.346;2024-02-16T14:59:08;14.60;1.00
5218;DHT22;26539;51.064;6.346;2024-02-16T15:01:36;14.70;1.10
5218;DHT22;26539;51.064;6.346;2024-02-16T15:04:02;14.70;3.00
5218;DHT22;26539;51.064;6.346;2024-02-16T15:06:28;14.70;1.00
5218;DHT22;26539;51.064;6.346;2024-02-16T15:08:54;14.60;1.00
5218;DHT22;26539;51.064;6.346;2024-02-16T15:11:20;14.60;1.00
5218;DHT22;26539;51.064;6.346;2024-02-16T15:13:45;14.60;3.90
5218;DHT22;26539;51.064;6.346;2024-02-16T15:16:11;14.50;5.00
5218;DHT22;26539;51.064;6.346;2024-02-16T15:18:36;14.40;5.80
5218;DHT22;26539;51.064;6.346;2024-02-16T15:21:02;14.30;13.90
5218;DHT22;26539;51.064;6.346;2024-02-16T15:23:27;14.30;21.10
5218;DHT22;26539;51.064;6.346;2024-02-16T15:25:53;14.20;23.20
5218;DHT22;26539;51.064;6.346;2024-02-16T15:28:18;14.20;22.80
5218;DHT22;26539;51.064;6.346;2024-02-16T15:30:44;14.10;20.10
5218;DHT22;26539;51.064;6.346;2024-02-16T15:33:10;14.10;20.80
5218;DHT22;26539;51.064;6.346;2024-02-16T15:35:36;14.10;25.80
5218;DHT22;26539;51.064;6.346;2024-02-16T15:38:02;14.10;27.90
5218;DHT22;26539;51.064;6.346;2024-02-16T15:40:28;14.10;31.30
5218;DHT22;26539;51.064;6.346;2024-02-16T15:43:01;14.10;29.60
5218;DHT22;26539;51.064;6.346;2024-02-16T15:45:27;14.10;30.50
5218;DHT22;26539;51.064;6.346;2024-02-16T15:47:52;14.10;28.80
5218;DHT22;26539;51.064;6.346;2024-02-16T15:50:18;14.10;25.90
5218;DHT22;26539;51.064;6.346;2024-02-16T15:52:44;14.00;21.80